• Join FlightAware (Why Join?)
  • Login
  • US Flag 
01:59AM EDT


 

Airport Tracker/Info


-or-


 

Live Flight TrackerFlight Track Log ✈ SWA3499 ✈ 06-May-2013 ✈ KMCO - KMHT

Flight Track Log - Related Links

Times and Time Zones

All times are in EDT time to prevent confusion due to time zone crossing. See the SWA3499 flight status page for this flight to view local times or setup timezone preferences in your user account.

Time Position Orientation Groundspeed Altitude Reporting Facility
EDT Latitude Longitude Course Direction KTS MPH feet Rate Location/Type
06:48PM 28.4167 -81.3000 90° East 164 189 500  Level Orlando TRACON
06:50PM 28.6120 -81.3333 North  Level FlightAware Approximate
06:53PM 28.4167 -81.0333 North 302 348 12,500  Level Orlando TRACON
06:55PM 28.5880 -80.9401 26° Northeast  Level Estimated
06:57PM 29.4565 -81.4167 North  Level FlightAware Approximate
06:57PM 28.7506 -81.2183 26° Northeast 358 412 20,600  Level Jacksonville Center
06:58PM 29.5774 -81.4230 353° North  Level FlightAware Approximate
06:58PM 28.8453 -81.2783 331° Northwest 375 432 22,800  Level Jacksonville Center
06:59PM 29.6981 -81.4333 North  Level FlightAware Approximate
06:59PM 28.9419 -81.3361 332° Northwest 380 437 24,700  Level Jacksonville Center
07:00PM 29.0528 -81.3653 347° North 391 450 26,600 1,800 Climbing Jacksonville Center
07:01PM 29.1742 -81.3778 355° North 408 470 28,400 1,500 Climbing Jacksonville Center
07:02PM 29.3530 -80.5197 26° Northeast  Level Estimated
07:03PM 29.4167 -81.4072 354° North 434 499 31,200  Level Jacksonville Center
07:04PM 29.5358 -81.4222 354° North 434 499 32,600 1,080 Climbing Jacksonville Center
07:05PM 29.6589 -81.4347 355° North 434 499 33,400 780 Climbing Jacksonville Center
07:07PM 29.9097 -81.4622 355° North 445 512 35,000 480 Climbing Jacksonville Center
07:08PM 30.0478 -81.4792 354° North 445 512 35,000  Level Jacksonville Center
07:09PM 30.1711 -81.4919 355° North 451 519 35,000  Level Jacksonville Center
07:11PM 30.4239 -81.5025 358° North 451 519 35,000  Level Jacksonville Center
07:12PM 30.5531 -81.4886 North 451 519 35,000  Level Jacksonville Center
07:13PM 30.6800 -81.4361 20° North 462 532 35,000  Level Jacksonville Center
07:14PM 30.8044 -81.3761 22° Northeast 470 541 35,000  Level Jacksonville Center
07:15PM 30.9269 -81.3183 22° Northeast 480 552 35,000  Level Jacksonville Center
07:16PM 31.0514 -81.2558 23° Northeast 480 552 35,000  Level Jacksonville Center
07:17PM 31.1719 -81.1978 22° Northeast 470 541 35,000  Level Jacksonville Center
07:18PM 31.2983 -81.1372 22° Northeast 476 548 35,000  Level Jacksonville Center
07:20PM 31.4669 -81.0503 24° Northeast  Level FlightAware Approximate
07:21PM 31.6633 -80.9594 24° Northeast 482 555 35,000  Level Jacksonville Center
07:23PM 31.8311 -80.8701 24° Northeast  Level FlightAware Approximate
07:25PM 32.1706 -80.7083 22° Northeast 490 564 35,000  Level Jacksonville Center
07:26PM 32.2947 -80.6464 23° Northeast 490 564 35,000  Level Jacksonville Center
07:27PM 32.4211 -80.5842 23° Northeast 490 564 35,000  Level Jacksonville Center
07:28PM 32.5472 -80.5192 23° Northeast 490 564 35,000  Level Jacksonville Center
07:29PM 32.6733 -80.4567 23° Northeast 490 564 35,000  Level Jacksonville Center
07:30PM 32.5806 -80.4687 22° Northeast  Level FlightAware Approximate
07:30PM 32.7975 -80.3942 23° Northeast 490 564 35,000  Level Jacksonville Center
07:31PM 32.9378 -80.3233 23° Northeast 495 570 35,000  Level Jacksonville Center
07:32PM 33.0597 -80.2603 23° Northeast 489 563 35,000  Level Jacksonville Center
07:33PM 33.1878 -80.1969 22° Northeast 497 572 35,000  Level Jacksonville Center
07:35PM 33.3566 -80.1029 25° Northeast  Level FlightAware Approximate
07:35PM 33.4458 -80.0672 25° Northeast 492 566 35,000  Level Jacksonville Center
07:36PM 33.5736 -80.0008 23° Northeast 492 566 35,000  Level Jacksonville Center
07:37PM 33.7017 -79.9344 23° Northeast 492 566 35,000  Level Jacksonville Center
07:39PM 33.9531 -79.8031 23° Northeast 492 566 35,000  Level Jacksonville Center
07:40PM 34.0808 -79.7383 23° Northeast 492 566 35,000  Level Jacksonville Center
07:42PM 34.2872 -79.6286 24° Northeast 494 568 35,000  Level Washington Center
07:43PM 34.4125 -79.5617 24° Northeast 494 568 35,000  Level Washington Center
07:44PM 34.5397 -79.4997 22° Northeast 488 562 35,000  Level Washington Center
07:45PM 34.6556 -79.4094 33° Northeast 488 562 35,000  Level Washington Center
07:46PM 34.7608 -79.3083 38° Northeast 482 555 35,000  Level Washington Center
07:47PM 34.8664 -79.2042 39° Northeast 482 555 35,000  Level Washington Center
07:48PM 34.9714 -79.1050 38° Northeast 482 555 35,000  Level Washington Center
07:49PM 35.0767 -79.0031 38° Northeast 482 555 35,000  Level Washington Center
07:50PM 35.1794 -78.9083 37° Northeast 472 543 35,000  Level Washington Center
07:51PM 35.2803 -78.8131 38° Northeast 472 543 35,000  Level Washington Center
07:53PM 35.4942 -78.6100 38° Northeast 459 528 35,000  Level Washington Center
07:55PM 35.6727 -78.4688 33° Northeast  Level FlightAware Approximate
07:56PM 35.7994 -78.3269 33° Northeast 459 528 35,000  Level Washington Center
07:57PM 35.9036 -78.2333 36° Northeast 459 528 35,000  Level Washington Center
07:58PM 36.0081 -78.1417 35° Northeast 459 528 35,000  Level Washington Center
07:59PM 36.1161 -78.0578 32° Northeast 459 528 35,000  Level Washington Center
08:01PM 36.3040 -77.9300 29° Northeast  Level FlightAware Approximate
08:02PM 36.4358 -77.8147 29° Northeast 464 534 35,000  Level Washington Center
08:03PM 36.5458 -77.7300 32° Northeast 464 534 35,000  Level Washington Center
08:04PM 36.6581 -77.6400 33° Northeast 469 540 35,000  Level Washington Center
08:05PM 36.7700 -77.5547 31° Northeast 469 540 35,000  Level Washington Center
08:06PM 36.8800 -77.4667 33° Northeast 464 534 35,000 180 Level Washington Center
08:07PM 36.9897 -77.3836 31° Northeast 464 534 35,400 660 Climbing Washington Center
08:09PM 37.2133 -77.2086 32° Northeast 464 534 37,000 480 Climbing Washington Center
08:10PM 37.3336 -77.1119 33° Northeast 464 534 37,000  Level Washington Center
08:11PM 37.4344 -77.0356 31° Northeast 464 534 37,000  Level Washington Center
08:13PM 37.6090 -76.8874 34° Northeast  Level FlightAware Approximate
08:15PM 37.8867 -76.7022 37° Northeast 469 540 37,000  Level Washington Center
08:17PM 38.1133 -76.5314 31° Northeast 469 540 37,000  Level Washington Center
08:18PM 38.2244 -76.4456 31° Northeast 469 540 37,000  Level Washington Center
08:19PM 38.3439 -76.3489 32° Northeast 469 540 37,000  Level Washington Center
08:20PM 38.3172 -76.3678 37° Northeast  Level FlightAware Approximate
08:21PM 38.5089 -76.1879 37° Northeast  Level FlightAware Approximate
08:21PM 38.5450 -76.1597 37° Northeast 474 545 37,000  Level Washington Center
08:22PM 38.6519 -76.0622 35° Northeast 474 545 37,000  Level Washington Center
08:23PM 38.7583 -75.9669 35° Northeast 474 545 37,000  Level Washington Center
08:24PM 38.8631 -75.8661 37° Northeast 474 545 37,000  Level Washington Center
08:26PM 39.0717 -75.6692 36° Northeast 469 540 37,000  Level Washington Center
08:27PM 39.1781 -75.5728 35° Northeast 469 540 37,000  Level Washington Center
08:28PM 39.2800 -75.4736 37° Northeast 464 534 37,000  Level Washington Center
08:30PM 39.4806 -75.2950 34° Northeast 465 535 37,000 -60 Level New York Center
08:31PM 39.5822 -75.2019 35° Northeast 454 522 36,900  Descending New York Center
08:32PM 39.6814 -75.1136 34° Northeast 439 505 37,000  Climbing New York Center
08:33PM 39.7911 -75.0153 35° Northeast 434 499 37,000  Level New York Center
08:35PM 39.9858 -74.8183 38° Northeast 434 499 37,000  Level New York Center
08:36PM 40.0981 -74.7625 21° North 429 494 37,000  Level New York Center
08:37PM 40.2100 -74.7172 17° North 418 481 37,000  Level New York Center
08:38PM 40.3222 -74.6719 17° North 418 481 37,000  Level New York Center
08:39PM 40.4381 -74.6322 15° North 418 481 37,000  Level New York Center
08:41PM 40.6653 -74.5522 15° North 419 482 37,000  Level Boston Center
08:42PM 40.7828 -74.5094 15° North 424 488 37,000  Level Boston Center
08:43PM 40.9003 -74.4694 14° North 424 488 37,000  Level Boston Center
08:44PM 41.0197 -74.4292 14° North 429 494 37,000  Level Boston Center
08:45PM 41.1142 -74.3933 16° North 435 501 37,000  Level Boston Center
08:47PM 41.3357 -74.3056 17° North  Level FlightAware Approximate
08:48PM 41.4875 -74.2636 17° North 430 495 37,000  Level Boston Center
08:49PM 41.6194 -74.2144 16° North 436 502 37,000 -60 Level Boston Center
08:50PM 41.7619 -74.1656 14° North 431 496 36,900 -1,320 Descending Boston Center
08:52PM 41.9371 -74.0929 17° North  Level FlightAware Approximate
08:53PM 42.0486 -73.9358 17° North 411 473 31,900  Level Boston Center
08:54PM 42.1153 -73.7892 58° Northeast 417 480 30,900 -1,080 Descending Boston Center
08:55PM 42.1836 -73.6419 58° Northeast 444 511 29,800 -1,080 Descending Boston Center
08:56PM 42.2475 -73.5003 59° Northeast 449 517 28,800 -1,020 Descending Boston Center
08:57PM 42.3092 -73.3636 59° Northeast 438 504 27,800 -1,140 Descending Boston Center
08:59PM 42.3828 -73.1311 57° Northeast  Level FlightAware Approximate
09:00PM 42.4867 -72.9694 57° Northeast 405 466 24,400  Level Boston Center
09:01PM 42.5414 -72.8458 59° Northeast 399 459 22,400 -2,040 Descending Boston Center
09:02PM 42.5958 -72.7278 58° Northeast 381 438 20,400 -2,040 Descending Boston Center
09:03PM 42.6544 -72.6067 57° Northeast 365 420 18,400 -1,680 Descending Boston Center
09:04PM 42.7067 -72.4939 58° Northeast 353 406 17,100 -1,800 Descending Boston Center
09:06PM 42.7989 -72.2764 60° Northeast  Level FlightAware Approximate
09:06PM 42.8333 -72.2167 60° Northeast 342 394 12,300  Level KA90
09:07PM 42.8522 -72.1569 67° East 335 386 11,300 -1,440 Descending Boston Center
09:08PM 42.8978 -72.0547 59° Northeast 328 377 10,200 -1,020 Descending Boston Center
09:09PM 42.9392 -71.9608 59° Northeast 303 349 9,300 -1,200 Descending Boston Center
09:11PM 43.0153 -71.7814 60° Northeast 273 314 6,700 -1,380 Descending Boston Center
09:12PM 43.0544 -71.6928 59° Northeast 273 314 5,300 -960 Descending Boston Center
09:13PM 43.0894 -71.6128 59° Northeast 262 302 4,800 -780 Descending Boston Center
09:14PM 43.0950 -71.5358 84° East 234 269 3,800 -1,140 Descending Boston Center
09:15PM 43.0447 -71.4997 152° Southeast 183 211 2,600 -1,200 Descending Boston Center
09:16PM 43.0008 -71.4750 158° South 180 207 1,500 -900 Descending Boston Center
09:17PM 42.9631 -71.4528 157° South 156 180 800 -600 Descending Boston Center
09:18PM 42.9317 -71.4333 156° South 149 171 300 4,080 Descending Boston Center
09:19PM 42.8939 -71.4142 160° South 149 171 9,000 4,320 Climbing Boston Center
09:20PM 42.8583 -71.3922 156° South 149 171 9,000  Level Boston Center
09:22PM 42.9167 -71.4333 316° Northwest  Level FlightAware Approximate